createdAt,value
2022-08-02T00:10:41.628Z,20.36
2022-08-02T00:21:10.572Z,20.30
2022-08-02T00:31:40.889Z,20.30
2022-08-02T00:42:11.074Z,20.18
2022-08-02T00:52:40.096Z,19.76
2022-08-02T01:03:09.098Z,19.78
2022-08-02T01:13:38.301Z,19.91
2022-08-02T01:24:22.924Z,20.02
2022-08-02T01:34:56.918Z,20.11
2022-08-02T01:45:28.570Z,20.10
2022-08-02T01:55:59.993Z,19.77
2022-08-02T02:06:29.643Z,19.34
2022-08-02T02:16:59.687Z,19.10
2022-08-02T02:27:29.787Z,19.10
2022-08-02T02:38:01.116Z,19.03
2022-08-02T02:48:31.408Z,18.89
2022-08-02T02:59:01.135Z,18.70
2022-08-02T03:09:30.235Z,18.50
2022-08-02T03:19:59.573Z,18.36
2022-08-02T03:30:28.880Z,18.34
2022-08-02T03:40:59.273Z,18.46
2022-08-02T03:51:29.012Z,18.73
2022-08-02T04:01:58.182Z,18.94
2022-08-02T04:12:31.150Z,19.13
2022-08-02T04:23:03.137Z,19.13
2022-08-02T04:33:32.842Z,19.10
2022-08-02T04:44:02.006Z,19.18
2022-08-02T04:54:31.281Z,19.25
2022-08-02T05:05:00.475Z,19.32
2022-08-02T05:15:33.237Z,19.37
2022-08-02T05:26:02.830Z,19.35
2022-08-02T05:36:32.021Z,19.38
2022-08-02T05:47:01.184Z,19.43
2022-08-02T05:57:44.081Z,19.44
2022-08-02T06:08:14.888Z,19.51
2022-08-02T06:18:45.419Z,19.65
2022-08-02T06:29:16.014Z,19.78
2022-08-02T06:39:49.926Z,19.77
2022-08-02T06:50:19.246Z,19.78
2022-08-02T07:00:48.655Z,19.96
2022-08-02T07:11:19.728Z,20.33
2022-08-02T07:21:57.304Z,20.64
2022-08-02T07:32:32.257Z,20.84
2022-08-02T07:43:04.237Z,21.20
2022-08-02T07:53:51.372Z,21.45
2022-08-02T08:04:23.422Z,21.52
2022-08-02T08:14:52.805Z,21.81
2022-08-02T08:25:22.550Z,21.78
2022-08-02T08:35:51.721Z,21.55
2022-08-02T08:46:28.765Z,21.56
2022-08-02T08:56:59.366Z,21.68
2022-08-02T09:07:29.002Z,21.83
2022-08-02T09:17:58.432Z,22.21
2022-08-02T09:28:30.436Z,22.52
2022-08-02T09:39:02.163Z,22.63
2022-08-02T09:49:35.019Z,22.85
2022-08-02T10:00:08.703Z,23.12
2022-08-02T10:10:47.060Z,23.22
2022-08-02T10:21:22.692Z,23.33
2022-08-02T10:31:56.287Z,23.28
2022-08-02T10:42:48.784Z,23.46
2022-08-02T10:53:32.129Z,23.82
2022-08-02T11:04:09.756Z,23.91
2022-08-02T11:14:41.306Z,23.82
2022-08-02T11:26:02.859Z,23.83
2022-08-02T11:36:26.222Z,23.96
2022-08-02T11:47:03.444Z,24.08
2022-08-02T11:58:03.055Z,24.16
2022-08-02T12:08:25.535Z,24.31
2022-08-02T12:19:11.931Z,24.48
2022-08-02T12:29:58.613Z,24.56
2022-08-02T12:40:32.159Z,24.75
2022-08-02T12:51:01.442Z,24.91
2022-08-02T13:01:31.966Z,25.15
2022-08-02T13:12:01.274Z,25.25
2022-08-02T13:22:32.698Z,25.18
2022-08-02T13:33:03.290Z,25.03
2022-08-02T13:43:53.684Z,24.97
2022-08-02T13:54:21.638Z,24.88
2022-08-02T14:04:50.810Z,24.96
2022-08-02T14:15:20.247Z,25.05
2022-08-02T14:25:49.362Z,25.14
2022-08-02T14:36:27.505Z,25.08
2022-08-02T14:46:57.543Z,25.13
2022-08-02T14:57:26.890Z,25.14
2022-08-02T15:07:56.038Z,25.11
2022-08-02T15:18:25.199Z,25.11
2022-08-02T15:28:55.590Z,25.11
2022-08-02T15:39:25.222Z,25.08
2022-08-02T15:49:54.435Z,25.06
2022-08-02T16:00:24.034Z,25.06
2022-08-02T16:10:53.508Z,25.07
2022-08-02T16:21:25.045Z,25.03
2022-08-02T16:31:54.399Z,24.90
2022-08-02T16:42:25.198Z,24.71
2022-08-02T16:52:54.839Z,24.56
2022-08-02T17:03:24.649Z,24.54
2022-08-02T17:14:13.976Z,24.54
2022-08-02T17:24:45.179Z,24.53
2022-08-02T17:35:18.267Z,24.49
2022-08-02T17:46:00.854Z,24.47
2022-08-02T17:56:31.599Z,24.35
2022-08-02T18:07:03.914Z,24.21
2022-08-02T18:17:33.728Z,23.99
2022-08-02T18:28:03.294Z,23.76
2022-08-02T18:38:32.459Z,23.46
2022-08-02T18:49:06.819Z,23.23
2022-08-02T18:59:44.612Z,22.92
2022-08-02T19:10:20.708Z,22.81
2022-08-02T19:20:50.348Z,22.41
2022-08-02T19:31:20.142Z,22.18
2022-08-02T19:41:49.780Z,21.99
2022-08-02T19:52:25.034Z,21.77
2022-08-02T20:02:54.761Z,21.61
2022-08-02T20:13:24.532Z,21.53
2022-08-02T20:23:55.953Z,21.33
2022-08-02T20:34:26.901Z,21.14
2022-08-02T20:44:56.302Z,21.02
2022-08-02T20:55:25.835Z,20.82
2022-08-02T21:05:56.132Z,20.62
2022-08-02T21:16:25.661Z,20.46
2022-08-02T21:26:56.933Z,20.36
2022-08-02T21:37:33.199Z,20.19
2022-08-02T21:48:14.097Z,20.08
2022-08-02T21:58:43.364Z,19.95
2022-08-02T22:09:17.662Z,19.78
2022-08-02T22:20:02.154Z,19.80
2022-08-02T22:30:31.327Z,19.69
2022-08-02T22:41:00.606Z,19.64
2022-08-02T22:51:30.396Z,19.52
2022-08-02T23:02:01.795Z,19.50
2022-08-02T23:12:31.077Z,19.43
2022-08-02T23:23:00.324Z,19.27
2022-08-02T23:33:29.544Z,19.19
2022-08-02T23:44:12.891Z,19.11
2022-08-02T23:54:43.025Z,18.95
